createdAt,value
2019-05-15T00:00:32.618Z,420.57
2019-05-15T00:01:30.555Z,420.68
2019-05-15T00:02:30.588Z,420.48
2019-05-15T00:03:30.559Z,420.29
2019-05-15T00:04:30.537Z,420.58
2019-05-15T00:05:30.546Z,420.18
2019-05-15T00:06:30.516Z,420.50
2019-05-15T00:07:30.498Z,420.29
2019-05-15T00:08:30.509Z,420.39
2019-05-15T00:09:30.482Z,420.52
2019-05-15T00:10:30.476Z,420.29
2019-05-15T00:11:30.466Z,420.36
2019-05-15T00:12:30.452Z,420.34
2019-05-15T00:13:30.456Z,420.34
2019-05-15T00:14:30.426Z,420.38
2019-05-15T00:15:30.410Z,420.41
2019-05-15T00:16:30.407Z,420.24
2019-05-15T00:17:30.394Z,420.54
2019-05-15T00:18:30.408Z,420.44
2019-05-15T00:19:30.376Z,420.26
2019-05-15T00:20:30.357Z,420.62
2019-05-15T00:21:30.350Z,420.12
2019-05-15T00:22:30.347Z,420.66
2019-05-15T00:23:30.351Z,420.19
2019-05-15T00:24:30.307Z,420.17
2019-05-15T00:25:30.292Z,420.80
2019-05-15T00:26:30.286Z,420.44
2019-05-15T00:27:30.268Z,420.46
2019-05-15T00:28:30.304Z,420.54
2019-05-15T00:29:30.259Z,420.35
2019-05-15T00:30:30.253Z,420.54
2019-05-15T00:31:30.253Z,420.48
2019-05-15T00:32:30.225Z,420.29
2019-05-15T00:33:30.235Z,420.50
2019-05-15T00:34:30.209Z,420.36
2019-05-15T00:35:30.721Z,420.48
2019-05-15T00:36:30.193Z,420.24
2019-05-15T00:37:30.164Z,420.67
2019-05-15T00:38:30.179Z,420.41
2019-05-15T00:39:30.149Z,420.30
2019-05-15T00:40:30.140Z,420.49
2019-05-15T00:41:30.148Z,420.12
2019-05-15T00:42:30.111Z,420.53
2019-05-15T00:43:30.141Z,420.55
2019-05-15T00:44:30.100Z,420.44
2019-05-15T00:45:30.122Z,420.30
2019-05-15T00:46:30.075Z,420.79
2019-05-15T00:47:30.056Z,420.21
2019-05-15T00:48:30.069Z,420.60
2019-05-15T00:49:30.038Z,420.28
2019-05-15T00:50:30.028Z,420.64
2019-05-15T00:51:30.035Z,420.24
2019-05-15T00:52:29.998Z,420.42
2019-05-15T00:53:30.037Z,420.23
2019-05-15T00:54:29.995Z,420.55
2019-05-15T00:55:29.980Z,420.45
2019-05-15T00:56:29.962Z,420.66
2019-05-15T00:57:29.953Z,420.45
2019-05-15T00:58:29.970Z,420.47
2019-05-15T00:59:30.215Z,420.65
2019-05-15T01:00:29.922Z,420.47
2019-05-15T01:01:29.902Z,420.72
2019-05-15T01:02:29.896Z,420.46
2019-05-15T01:03:29.907Z,420.45
2019-05-15T01:04:29.878Z,420.64
2019-05-15T01:05:29.862Z,420.54
2019-05-15T01:06:29.848Z,420.30
2019-05-15T01:07:29.843Z,420.54
2019-05-15T01:08:29.852Z,420.74
2019-05-15T01:09:29.827Z,420.36
2019-05-15T01:10:29.818Z,420.51
2019-05-15T01:11:29.805Z,420.55
2019-05-15T01:12:29.783Z,420.39
2019-05-15T01:13:29.804Z,420.58
2019-05-15T01:14:29.770Z,420.71
2019-05-15T01:15:29.762Z,420.23
2019-05-15T01:16:29.752Z,420.56
2019-05-15T01:17:29.732Z,420.51
2019-05-15T01:18:29.746Z,420.32
2019-05-15T01:19:29.711Z,420.55
2019-05-15T01:20:29.698Z,420.59
2019-05-15T01:21:29.689Z,420.14
2019-05-15T01:22:29.682Z,420.27
2019-05-15T01:23:29.690Z,420.33
2019-05-15T01:24:29.662Z,420.39
2019-05-15T01:25:29.646Z,420.52
2019-05-15T01:26:29.637Z,420.92
2019-05-15T01:27:29.627Z,420.46
2019-05-15T01:28:29.644Z,420.62
2019-05-15T01:29:40.915Z,420.55
2019-05-15T01:30:30.590Z,420.53
2019-05-15T01:31:29.608Z,420.43
2019-05-15T01:32:29.567Z,420.34
2019-05-15T01:33:29.566Z,420.41
2019-05-15T01:34:29.578Z,420.53
2019-05-15T01:35:29.533Z,420.43
2019-05-15T01:36:29.526Z,420.63
2019-05-15T01:37:29.503Z,420.50
2019-05-15T01:38:29.502Z,420.31
2019-05-15T01:39:29.507Z,420.35
2019-05-15T01:40:29.480Z,420.46
2019-05-15T01:41:29.473Z,420.58
2019-05-15T01:42:29.467Z,420.49
2019-05-15T01:43:29.531Z,420.40
2019-05-15T01:44:29.473Z,420.50
2019-05-15T01:45:29.419Z,420.51
2019-05-15T01:46:30.112Z,420.40
2019-05-15T01:47:29.433Z,420.76
2019-05-15T01:48:29.408Z,420.23
2019-05-15T01:49:29.404Z,420.38
2019-05-15T01:50:29.373Z,420.87
2019-05-15T01:51:29.373Z,420.49
2019-05-15T01:52:29.349Z,420.60
2019-05-15T01:53:29.342Z,420.41
2019-05-15T01:54:29.354Z,420.68
2019-05-15T01:55:29.313Z,420.38
2019-05-15T01:56:29.449Z,420.57
2019-05-15T01:57:29.297Z,420.53
2019-05-15T01:58:29.279Z,420.82
2019-05-15T01:59:29.351Z,420.89
2019-05-15T02:00:29.265Z,420.23
2019-05-15T02:01:29.255Z,420.45
2019-05-15T02:02:29.250Z,420.95
2019-05-15T02:03:29.233Z,420.67
2019-05-15T02:04:29.231Z,420.59
2019-05-15T02:05:29.209Z,420.87
2019-05-15T02:06:29.221Z,420.54
2019-05-15T02:07:29.181Z,420.61
2019-05-15T02:08:29.179Z,420.38
2019-05-15T02:09:29.185Z,420.56
2019-05-15T02:10:29.319Z,420.83
2019-05-15T02:11:29.158Z,420.77
2019-05-15T02:12:29.135Z,420.82
2019-05-15T02:13:29.122Z,420.38
2019-05-15T02:14:29.133Z,420.73
2019-05-15T02:15:29.102Z,420.59
2019-05-15T02:16:29.088Z,420.57
2019-05-15T02:17:29.082Z,420.61
2019-05-15T02:18:29.062Z,420.29
2019-05-15T02:19:29.094Z,420.79
2019-05-15T02:20:29.258Z,420.68
2019-05-15T02:21:29.085Z,421.00
2019-05-15T02:22:29.028Z,420.44
2019-05-15T02:23:29.018Z,420.60
2019-05-15T02:24:29.002Z,421.12
2019-05-15T02:25:29.005Z,420.47
2019-05-15T02:26:28.975Z,420.97
2019-05-15T02:27:29.575Z,420.74
2019-05-15T02:28:29.062Z,420.52
2019-05-15T02:29:28.946Z,420.46
2019-05-15T02:30:33.926Z,420.61
2019-05-15T02:31:30.478Z,420.95
2019-05-15T02:32:30.275Z,421.10
2019-05-15T02:33:30.059Z,420.59
2019-05-15T02:34:29.975Z,420.61
2019-05-15T02:35:29.605Z,421.06
2019-05-15T02:36:29.500Z,420.80
2019-05-15T02:37:29.588Z,420.74
2019-05-15T02:38:29.805Z,420.74
2019-05-15T02:39:29.194Z,420.65
2019-05-15T02:40:29.594Z,420.80
2019-05-15T02:41:29.861Z,420.41
2019-05-15T02:42:29.252Z,420.73
2019-05-15T02:43:29.770Z,420.35
2019-05-15T02:44:29.303Z,420.59
2019-05-15T02:45:30.167Z,420.35
2019-05-15T02:46:30.101Z,420.62
2019-05-15T02:47:29.221Z,420.59
2019-05-15T02:48:29.196Z,420.47
2019-05-15T02:49:30.254Z,420.42
2019-05-15T02:50:29.292Z,420.59
2019-05-15T02:51:29.954Z,420.52
2019-05-15T02:52:29.515Z,420.72
2019-05-15T02:53:29.994Z,420.54
2019-05-15T02:54:29.892Z,420.55
2019-05-15T02:55:29.692Z,420.41
2019-05-15T02:56:29.398Z,420.53
2019-05-15T02:57:29.984Z,420.65
2019-05-15T02:58:29.385Z,420.53
2019-05-15T02:59:29.243Z,420.67
2019-05-15T03:00:37.764Z,420.56
2019-05-15T03:01:29.617Z,420.65
2019-05-15T03:02:28.761Z,420.78
2019-05-15T03:03:29.521Z,420.37
2019-05-15T03:04:29.259Z,420.61
2019-05-15T03:05:29.489Z,420.69
2019-05-15T03:06:29.930Z,420.58
2019-05-15T03:07:29.492Z,420.61
2019-05-15T03:08:29.729Z,420.85
2019-05-15T03:09:29.710Z,420.65
2019-05-15T03:10:29.686Z,420.64
2019-05-15T03:11:29.429Z,420.46
2019-05-15T03:12:29.169Z,420.76
2019-05-15T03:13:29.973Z,420.73
2019-05-15T03:14:29.274Z,420.70
2019-05-15T03:15:29.132Z,420.81
2019-05-15T03:16:30.428Z,420.69
2019-05-15T03:17:29.668Z,421.00
2019-05-15T03:18:29.142Z,420.88
2019-05-15T03:19:29.882Z,420.83
2019-05-15T03:20:29.754Z,420.72
2019-05-15T03:21:29.519Z,420.70
2019-05-15T03:22:29.323Z,420.74
2019-05-15T03:23:29.589Z,420.91
2019-05-15T03:24:29.016Z,420.89
2019-05-15T03:25:29.737Z,420.97
2019-05-15T03:26:29.796Z,421.04
2019-05-15T03:27:30.334Z,421.03
2019-05-15T03:28:29.458Z,420.84
2019-05-15T03:29:29.229Z,420.87
2019-05-15T03:30:32.247Z,420.83
2019-05-15T03:31:50.597Z,420.90
2019-05-15T03:32:42.211Z,420.97
2019-05-15T03:33:35.705Z,420.76
2019-05-15T03:34:37.548Z,420.85
2019-05-15T03:35:32.644Z,420.96
2019-05-15T03:36:31.846Z,420.65
2019-05-15T03:37:33.297Z,420.83
2019-05-15T03:38:29.931Z,420.80
2019-05-15T03:39:29.655Z,420.66
2019-05-15T03:40:30.008Z,420.80
2019-05-15T03:41:29.843Z,420.85
2019-05-15T03:42:29.370Z,420.74
2019-05-15T03:43:29.194Z,421.00
2019-05-15T03:44:28.638Z,420.72
2019-05-15T03:45:29.652Z,420.76
2019-05-15T03:46:29.185Z,420.93
2019-05-15T03:47:30.181Z,420.83
2019-05-15T03:48:28.852Z,420.99
2019-05-15T03:49:29.432Z,420.77
2019-05-15T03:50:28.980Z,420.52
2019-05-15T03:51:28.934Z,420.88
2019-05-15T03:52:29.494Z,420.98
2019-05-15T03:53:29.836Z,420.62
2019-05-15T03:54:29.305Z,421.12
2019-05-15T03:55:29.588Z,421.16
2019-05-15T03:56:29.570Z,420.70
2019-05-15T03:57:30.418Z,421.04
2019-05-15T03:58:28.792Z,420.83
2019-05-15T03:59:29.541Z,421.15
2019-05-15T04:00:30.171Z,420.93
2019-05-15T04:01:33.548Z,421.09
2019-05-15T04:02:29.033Z,420.91
2019-05-15T04:03:29.965Z,420.78
2019-05-15T04:04:29.655Z,420.74
2019-05-15T04:05:29.350Z,421.02
2019-05-15T04:06:29.860Z,420.86
2019-05-15T04:07:29.211Z,420.83
2019-05-15T04:08:29.839Z,420.91
2019-05-15T04:09:29.382Z,421.02
2019-05-15T04:10:28.805Z,420.84
2019-05-15T04:11:29.440Z,420.91
2019-05-15T04:12:29.033Z,420.76
2019-05-15T04:13:30.048Z,420.82
2019-05-15T04:14:29.556Z,420.91
2019-05-15T04:15:30.182Z,421.00
2019-05-15T04:16:29.580Z,420.82
2019-05-15T04:17:29.473Z,421.05
2019-05-15T04:18:29.143Z,421.13
2019-05-15T04:19:29.614Z,420.98
2019-05-15T04:20:29.678Z,420.86
2019-05-15T04:21:30.340Z,421.02
2019-05-15T04:22:29.154Z,420.76
2019-05-15T04:23:30.083Z,421.05
2019-05-15T04:24:30.095Z,420.98
2019-05-15T04:25:29.740Z,421.15
2019-05-15T04:26:28.631Z,420.99
2019-05-15T04:27:29.035Z,420.62
2019-05-15T04:28:29.231Z,420.91
2019-05-15T04:29:28.992Z,421.32
2019-05-15T04:30:30.518Z,421.26
2019-05-15T04:31:35.411Z,420.71
2019-05-15T04:32:29.079Z,420.85
2019-05-15T04:33:29.411Z,420.96
2019-05-15T04:34:29.054Z,420.87
2019-05-15T04:35:28.925Z,420.79
2019-05-15T04:36:29.636Z,420.63
2019-05-15T04:37:29.868Z,420.88
2019-05-15T04:38:29.305Z,421.07
2019-05-15T04:39:29.641Z,420.95
2019-05-15T04:40:29.858Z,421.43
2019-05-15T04:41:29.901Z,420.80
2019-05-15T04:42:29.923Z,420.83
2019-05-15T04:43:30.264Z,420.86
2019-05-15T04:44:29.055Z,421.18
2019-05-15T04:45:34.416Z,420.91
2019-05-15T04:46:29.925Z,420.98
2019-05-15T04:47:30.271Z,420.83
2019-05-15T04:48:29.018Z,421.22
2019-05-15T04:49:29.052Z,421.02
2019-05-15T04:50:28.774Z,420.97
2019-05-15T04:51:30.447Z,420.94
2019-05-15T04:52:30.525Z,421.15
2019-05-15T04:53:32.751Z,420.76
2019-05-15T04:54:28.856Z,421.00
2019-05-15T04:55:28.967Z,421.05
2019-05-15T04:56:29.307Z,421.13
2019-05-15T04:57:33.462Z,421.10
2019-05-15T04:58:29.655Z,421.10
2019-05-15T04:59:30.032Z,421.05
2019-05-15T05:00:29.259Z,421.25
2019-05-15T05:01:28.844Z,421.01
2019-05-15T05:02:31.666Z,421.01
2019-05-15T05:03:29.188Z,421.20
2019-05-15T05:04:29.518Z,420.89
2019-05-15T05:05:29.376Z,420.90
2019-05-15T05:06:29.425Z,420.99
2019-05-15T05:07:29.574Z,421.00
2019-05-15T05:08:29.059Z,421.34
2019-05-15T05:09:28.878Z,420.91
2019-05-15T05:10:29.013Z,420.98
2019-05-15T05:11:28.776Z,421.15
2019-05-15T05:12:28.981Z,421.00
2019-05-15T05:13:28.631Z,420.93
2019-05-15T05:14:28.552Z,421.16
2019-05-15T05:15:29.268Z,421.00
2019-05-15T05:16:29.506Z,421.16
2019-05-15T05:17:28.850Z,421.25
2019-05-15T05:18:29.514Z,421.24
2019-05-15T05:19:28.567Z,421.11
2019-05-15T05:20:28.750Z,421.10
2019-05-15T05:21:27.849Z,421.21
2019-05-15T05:22:28.233Z,421.20
2019-05-15T05:23:28.355Z,421.17
2019-05-15T05:24:28.066Z,420.96
2019-05-15T05:25:27.994Z,420.90
2019-05-15T05:26:29.215Z,421.18
2019-05-15T05:27:28.868Z,421.17
2019-05-15T05:28:29.001Z,421.40
2019-05-15T05:29:28.014Z,421.21
2019-05-15T05:30:29.168Z,421.12
2019-05-15T05:31:29.065Z,421.04
2019-05-15T05:32:33.871Z,420.89
2019-05-15T05:33:28.631Z,421.11
2019-05-15T05:34:28.390Z,421.16
2019-05-15T05:35:27.902Z,421.31
2019-05-15T05:36:27.932Z,421.00
2019-05-15T05:37:27.974Z,420.97
2019-05-15T05:38:28.169Z,421.17
2019-05-15T05:39:29.277Z,421.43
2019-05-15T05:40:29.153Z,421.00
2019-05-15T05:41:28.089Z,421.14
2019-05-15T05:42:29.023Z,421.02
2019-05-15T05:43:26.866Z,421.36
2019-05-15T05:44:29.037Z,421.21
2019-05-15T05:45:28.703Z,421.12
2019-05-15T05:46:28.067Z,421.21
2019-05-15T05:47:28.718Z,421.19
2019-05-15T05:48:29.087Z,421.20
2019-05-15T05:49:28.770Z,421.17
2019-05-15T05:50:28.809Z,421.34
2019-05-15T05:51:28.198Z,421.34
2019-05-15T05:52:28.031Z,421.08
2019-05-15T05:53:28.657Z,421.13
2019-05-15T05:54:28.794Z,420.95
2019-05-15T05:55:28.739Z,421.17
2019-05-15T05:56:28.671Z,420.95
2019-05-15T05:57:27.961Z,421.26
2019-05-15T05:58:29.444Z,420.86
2019-05-15T05:59:28.395Z,421.23
2019-05-15T06:00:28.590Z,420.96
2019-05-15T06:01:28.245Z,421.21
2019-05-15T06:02:28.041Z,421.39
2019-05-15T06:03:28.066Z,421.17
2019-05-15T06:04:27.900Z,420.91
2019-05-15T06:05:28.127Z,421.23
2019-05-15T06:06:29.094Z,421.34
2019-05-15T06:07:27.929Z,420.90
2019-05-15T06:08:28.254Z,420.90
2019-05-15T06:09:27.786Z,421.66
2019-05-15T06:10:28.967Z,421.20
2019-05-15T06:11:27.733Z,420.96
2019-05-15T06:12:28.168Z,421.40
2019-05-15T06:13:28.921Z,421.47
2019-05-15T06:14:28.696Z,420.97
2019-05-15T06:15:28.526Z,421.20
2019-05-15T06:16:28.370Z,421.41
2019-05-15T06:17:28.053Z,421.26
2019-05-15T06:18:28.114Z,421.25
2019-05-15T06:19:27.798Z,421.25
2019-05-15T06:20:28.297Z,421.31
2019-05-15T06:21:28.398Z,421.40
2019-05-15T06:22:27.675Z,420.94
2019-05-15T06:23:32.138Z,421.09
2019-05-15T06:24:30.545Z,421.21
2019-05-15T06:25:30.250Z,421.24
2019-05-15T06:26:28.269Z,421.34
2019-05-15T06:27:29.877Z,421.23
2019-05-15T06:28:28.660Z,421.33
2019-05-15T06:29:28.256Z,421.14
2019-05-15T06:30:29.874Z,421.04
2019-05-15T06:31:28.106Z,420.99
2019-05-15T06:32:28.847Z,421.38
2019-05-15T06:33:27.812Z,421.18
2019-05-15T06:34:28.443Z,421.33
2019-05-15T06:35:30.907Z,420.89
2019-05-15T06:36:28.838Z,421.30
2019-05-15T06:37:28.529Z,421.26
2019-05-15T06:38:30.584Z,421.30
2019-05-15T06:39:28.265Z,421.21
2019-05-15T06:40:28.746Z,421.33
2019-05-15T06:41:28.478Z,421.18
2019-05-15T06:42:28.346Z,421.12
2019-05-15T06:43:28.085Z,421.28
2019-05-15T06:44:28.062Z,421.20
2019-05-15T06:45:28.345Z,421.40
2019-05-15T06:46:28.147Z,421.27
2019-05-15T06:47:28.360Z,421.37
2019-05-15T06:48:26.106Z,421.13
2019-05-15T06:49:28.473Z,421.36
2019-05-15T06:50:26.078Z,421.29
2019-05-15T06:51:26.068Z,421.34
2019-05-15T06:52:28.302Z,421.26
2019-05-15T06:53:26.054Z,421.30
2019-05-15T06:54:28.340Z,421.26
2019-05-15T06:55:26.024Z,421.34
2019-05-15T06:56:28.157Z,421.41
2019-05-15T06:57:28.573Z,421.65
2019-05-15T06:58:25.998Z,421.30
2019-05-15T06:59:26.008Z,421.54
2019-05-15T07:00:28.234Z,421.38
2019-05-15T07:01:25.963Z,421.38
2019-05-15T07:02:28.359Z,421.31
2019-05-15T07:03:29.051Z,421.45
2019-05-15T07:04:25.945Z,421.19
2019-05-15T07:05:25.921Z,421.27
2019-05-15T07:06:25.902Z,421.27
2019-05-15T07:07:25.915Z,420.91
2019-05-15T07:08:25.876Z,421.25
2019-05-15T07:09:28.404Z,421.18
2019-05-15T07:10:28.658Z,421.11
2019-05-15T07:11:28.063Z,421.21
2019-05-15T07:12:27.965Z,421.02
2019-05-15T07:13:25.867Z,420.94
2019-05-15T07:14:25.842Z,420.88
2019-05-15T07:15:27.872Z,420.91
2019-05-15T07:16:28.215Z,420.92
2019-05-15T07:17:25.791Z,420.82
2019-05-15T07:18:28.164Z,420.89
2019-05-15T07:19:28.319Z,420.79
2019-05-15T07:20:28.358Z,420.80
2019-05-15T07:21:25.758Z,420.67
2019-05-15T07:22:25.724Z,421.20
2019-05-15T07:23:28.114Z,420.87
2019-05-15T07:24:25.709Z,420.90
2019-05-15T07:25:25.733Z,421.08
2019-05-15T07:26:25.678Z,420.66
2019-05-15T07:27:28.166Z,420.86
2019-05-15T07:28:25.670Z,420.69
2019-05-15T07:29:25.710Z,420.65
2019-05-15T07:30:25.654Z,420.74
2019-05-15T07:31:25.618Z,420.46
2019-05-15T07:32:28.386Z,420.69
2019-05-15T07:33:38.861Z,420.34
2019-05-15T07:34:28.366Z,420.68
2019-05-15T07:35:25.634Z,420.61
2019-05-15T07:36:25.584Z,420.82
2019-05-15T07:37:25.560Z,420.81
2019-05-15T07:38:25.542Z,420.71
2019-05-15T07:39:25.573Z,420.73
2019-05-15T07:40:25.559Z,420.75
2019-05-15T07:41:25.501Z,420.61
2019-05-15T07:42:25.502Z,420.75
2019-05-15T07:43:27.924Z,420.75
2019-05-15T07:44:28.046Z,420.81
2019-05-15T07:45:28.116Z,420.60
2019-05-15T07:46:25.460Z,420.49
2019-05-15T07:47:25.457Z,420.86
2019-05-15T07:48:25.456Z,420.71
2019-05-15T07:49:25.432Z,420.77
2019-05-15T07:50:25.436Z,420.85
2019-05-15T07:51:25.417Z,420.99
2019-05-15T07:52:25.387Z,420.37
2019-05-15T07:53:25.374Z,420.42
2019-05-15T07:54:25.363Z,420.43
2019-05-15T07:55:25.376Z,420.55
2019-05-15T07:56:25.361Z,420.58
2019-05-15T07:57:25.332Z,420.09
2019-05-15T07:58:27.660Z,420.40
2019-05-15T07:59:25.307Z,420.60
2019-05-15T08:00:25.321Z,420.46
2019-05-15T08:01:25.299Z,420.49
2019-05-15T08:02:25.288Z,420.68
2019-05-15T08:03:25.267Z,420.45
2019-05-15T08:04:29.126Z,420.43
2019-05-15T08:05:28.437Z,420.12
2019-05-15T08:06:25.239Z,420.57
2019-05-15T08:07:25.226Z,420.67
2019-05-15T08:08:25.230Z,420.73
2019-05-15T08:09:25.205Z,420.14
2019-05-15T08:10:25.214Z,420.29
2019-05-15T08:11:25.189Z,420.30
2019-05-15T08:12:25.178Z,420.32
2019-05-15T08:13:25.152Z,420.55
2019-05-15T08:14:25.158Z,420.42
2019-05-15T08:15:25.170Z,420.18
2019-05-15T08:16:25.128Z,420.74
2019-05-15T08:17:25.120Z,419.97
2019-05-15T08:18:25.108Z,420.61
2019-05-15T08:19:25.103Z,420.48
2019-05-15T08:20:25.079Z,420.08
2019-05-15T08:21:25.095Z,420.60
2019-05-15T08:22:25.057Z,420.33
2019-05-15T08:23:25.045Z,420.30
2019-05-15T08:24:25.037Z,420.35
2019-05-15T08:25:32.349Z,420.40
2019-05-15T08:26:28.182Z,420.21
2019-05-15T08:27:25.009Z,420.45
2019-05-15T08:28:24.999Z,420.39
2019-05-15T08:29:24.977Z,420.39
2019-05-15T08:30:24.964Z,420.11
2019-05-15T08:31:25.054Z,420.50
2019-05-15T08:32:24.977Z,420.12
2019-05-15T08:33:24.936Z,420.20
2019-05-15T08:34:24.925Z,420.23
2019-05-15T08:35:24.916Z,420.32
2019-05-15T08:36:24.932Z,420.12
2019-05-15T08:37:24.881Z,420.30
2019-05-15T08:38:24.881Z,420.18
2019-05-15T08:39:24.887Z,420.22
2019-05-15T08:40:24.855Z,420.20
2019-05-15T08:41:24.861Z,420.37
2019-05-15T08:42:24.832Z,420.06
2019-05-15T08:43:24.838Z,420.19
2019-05-15T08:44:24.814Z,420.24
2019-05-15T08:45:24.800Z,420.36
2019-05-15T08:46:24.818Z,420.23
2019-05-15T08:47:24.775Z,420.21
2019-05-15T08:48:24.819Z,420.35
2019-05-15T08:49:24.755Z,420.44
2019-05-15T08:50:24.751Z,420.15
2019-05-15T08:51:24.763Z,420.23
2019-05-15T08:52:24.721Z,419.90
2019-05-15T08:53:24.716Z,419.94
2019-05-15T08:54:24.739Z,419.92
2019-05-15T08:55:24.688Z,419.79
2019-05-15T08:56:24.700Z,420.15
2019-05-15T08:57:24.679Z,420.13
2019-05-15T08:58:24.672Z,419.84
2019-05-15T08:59:24.647Z,419.83
2019-05-15T09:00:24.642Z,420.03
2019-05-15T09:01:24.652Z,419.81
2019-05-15T09:02:24.627Z,420.04
2019-05-15T09:03:24.613Z,419.96
2019-05-15T09:04:30.375Z,419.84
2019-05-15T09:05:25.583Z,419.97
2019-05-15T09:06:24.592Z,420.09
2019-05-15T09:07:24.568Z,419.66
2019-05-15T09:08:24.549Z,419.96
2019-05-15T09:09:24.531Z,419.96
2019-05-15T09:10:24.563Z,419.90
2019-05-15T09:11:24.541Z,420.01
2019-05-15T09:12:24.507Z,419.79
2019-05-15T09:13:24.494Z,420.22
2019-05-15T09:14:24.490Z,419.75
2019-05-15T09:15:24.490Z,419.64
2019-05-15T09:16:24.482Z,419.74
2019-05-15T09:17:24.501Z,419.68
2019-05-15T09:18:24.428Z,419.85
2019-05-15T09:19:24.445Z,419.86
2019-05-15T09:20:24.412Z,419.77
2019-05-15T09:21:24.437Z,419.67
2019-05-15T09:22:24.490Z,419.70
2019-05-15T09:23:24.395Z,419.67
2019-05-15T09:24:24.390Z,419.35
2019-05-15T09:25:24.367Z,419.87
2019-05-15T09:26:24.397Z,419.90
2019-05-15T09:27:24.349Z,419.92
2019-05-15T09:28:24.323Z,419.60
2019-05-15T09:29:24.314Z,419.95
2019-05-15T09:30:24.312Z,419.51
2019-05-15T09:31:24.305Z,419.72
2019-05-15T09:32:24.275Z,419.95
2019-05-15T09:33:24.271Z,419.68
2019-05-15T09:34:24.264Z,420.15
2019-05-15T09:35:24.243Z,419.65
2019-05-15T09:36:24.255Z,419.44
2019-05-15T09:37:24.218Z,419.73
2019-05-15T09:38:24.212Z,420.01
2019-05-15T09:39:24.196Z,419.70
2019-05-15T09:40:37.900Z,419.71
2019-05-15T09:41:25.307Z,419.75
2019-05-15T09:42:24.180Z,419.87
2019-05-15T09:43:24.152Z,419.59
2019-05-15T09:44:24.141Z,419.26
2019-05-15T09:45:24.144Z,419.91
2019-05-15T09:46:24.160Z,419.60
2019-05-15T09:47:24.118Z,419.74
2019-05-15T09:48:24.098Z,419.78
2019-05-15T09:49:24.107Z,419.70
2019-05-15T09:50:24.134Z,419.81
2019-05-15T09:51:24.087Z,419.91
2019-05-15T09:52:24.065Z,419.99
2019-05-15T09:53:24.060Z,419.56
2019-05-15T09:54:25.710Z,419.58
2019-05-15T09:55:24.021Z,419.59
2019-05-15T09:56:24.059Z,419.71
2019-05-15T09:57:23.999Z,419.70
2019-05-15T09:58:23.996Z,420.03
2019-05-15T09:59:23.993Z,419.87
2019-05-15T10:00:23.979Z,419.58
2019-05-15T10:01:24.041Z,419.90
2019-05-15T10:02:23.989Z,420.00
2019-05-15T10:03:23.958Z,419.71
2019-05-15T10:04:23.937Z,419.52
2019-05-15T10:05:23.911Z,419.20
2019-05-15T10:06:23.910Z,419.63
2019-05-15T10:07:23.917Z,419.87
2019-05-15T10:08:23.901Z,419.70
2019-05-15T10:09:23.898Z,419.84
2019-05-15T10:10:23.865Z,419.72
2019-05-15T10:11:23.841Z,419.79
2019-05-15T10:12:23.859Z,419.63
2019-05-15T10:13:23.841Z,419.78
2019-05-15T10:14:23.812Z,419.76
2019-05-15T10:15:23.803Z,419.84
2019-05-15T10:16:23.792Z,419.48
2019-05-15T10:17:23.807Z,419.75
2019-05-15T10:18:23.766Z,419.47
2019-05-15T10:19:23.813Z,419.76
2019-05-15T10:20:23.737Z,419.55
2019-05-15T10:21:28.940Z,419.73
2019-05-15T10:22:24.746Z,419.55
2019-05-15T10:23:23.719Z,419.20
2019-05-15T10:24:23.704Z,419.48
2019-05-15T10:25:23.695Z,419.86
2019-05-15T10:26:23.701Z,419.90
2019-05-15T10:27:23.682Z,419.72
2019-05-15T10:28:23.660Z,419.81
2019-05-15T10:29:23.648Z,419.37
2019-05-15T10:30:23.633Z,419.36
2019-05-15T10:31:23.624Z,419.25
2019-05-15T10:32:23.661Z,419.74
2019-05-15T10:33:23.609Z,419.87
2019-05-15T10:34:23.592Z,419.56
2019-05-15T10:35:28.070Z,419.67
2019-05-15T10:36:24.566Z,419.51
2019-05-15T10:37:23.581Z,419.69
2019-05-15T10:38:23.554Z,419.76
2019-05-15T10:39:23.565Z,419.40
2019-05-15T10:40:23.537Z,419.21
2019-05-15T10:41:23.516Z,419.75
2019-05-15T10:42:23.518Z,419.60
2019-05-15T10:43:23.487Z,419.71
2019-05-15T10:44:23.483Z,419.36
2019-05-15T10:45:23.464Z,419.57
2019-05-15T10:46:23.452Z,419.23
2019-05-15T10:47:23.540Z,419.47
2019-05-15T10:48:23.444Z,419.65
2019-05-15T10:49:23.439Z,419.56
2019-05-15T10:50:23.417Z,419.62
2019-05-15T10:51:24.309Z,419.56
2019-05-15T10:52:23.433Z,419.00
2019-05-15T10:53:23.380Z,419.50
2019-05-15T10:54:23.379Z,419.48
2019-05-15T10:55:23.354Z,419.66
2019-05-15T10:56:23.362Z,419.62
2019-05-15T10:57:23.362Z,419.53
2019-05-15T10:58:23.357Z,419.76
2019-05-15T10:59:23.318Z,419.21
2019-05-15T11:00:23.326Z,419.45
2019-05-15T11:01:23.310Z,419.26
2019-05-15T11:02:23.285Z,419.29
2019-05-15T11:03:23.299Z,419.69
2019-05-15T11:04:23.259Z,419.52
2019-05-15T11:05:37.357Z,419.29
2019-05-15T11:06:24.237Z,419.62
2019-05-15T11:07:23.224Z,419.34
2019-05-15T11:08:23.233Z,419.41
2019-05-15T11:09:23.196Z,419.48
2019-05-15T11:10:23.192Z,419.55
2019-05-15T11:11:23.197Z,419.29
2019-05-15T11:12:23.173Z,419.47
2019-05-15T11:13:23.185Z,419.57
2019-05-15T11:14:23.143Z,419.52
2019-05-15T11:15:23.148Z,419.42
2019-05-15T11:16:23.127Z,419.33
2019-05-15T11:17:23.139Z,419.55
2019-05-15T11:18:23.229Z,419.52
2019-05-15T11:19:23.083Z,419.67
2019-05-15T11:20:23.081Z,419.11
2019-05-15T11:21:23.066Z,419.25
2019-05-15T11:22:23.098Z,419.42
2019-05-15T11:23:23.133Z,419.40
2019-05-15T11:24:23.045Z,419.43
2019-05-15T11:25:23.033Z,419.58
2019-05-15T11:26:23.134Z,419.50
2019-05-15T11:27:23.004Z,419.16
2019-05-15T11:28:23.016Z,419.30
2019-05-15T11:29:23.109Z,419.08
2019-05-15T11:30:22.980Z,419.40
2019-05-15T11:31:24.788Z,419.12
2019-05-15T11:32:22.949Z,419.52
2019-05-15T11:33:22.965Z,419.35
2019-05-15T11:34:22.937Z,419.62
2019-05-15T11:35:22.934Z,419.17
2019-05-15T11:36:22.891Z,419.55
2019-05-15T11:37:22.885Z,419.16
2019-05-15T11:38:23.372Z,419.15
2019-05-15T11:39:22.877Z,419.48
2019-05-15T11:40:22.863Z,419.40
2019-05-15T11:41:22.845Z,419.36
2019-05-15T11:42:22.839Z,419.44
2019-05-15T11:43:22.858Z,419.21
2019-05-15T11:44:22.809Z,419.33
2019-05-15T11:45:22.813Z,419.19
2019-05-15T11:46:25.680Z,419.68
2019-05-15T11:47:23.777Z,419.72
2019-05-15T11:48:22.796Z,419.48
2019-05-15T11:49:22.754Z,419.30
2019-05-15T11:50:22.758Z,419.60
2019-05-15T11:51:22.745Z,419.44
2019-05-15T11:52:22.733Z,419.57
2019-05-15T11:53:22.745Z,419.39
2019-05-15T11:54:22.699Z,419.93
2019-05-15T11:55:22.713Z,419.52
2019-05-15T11:56:22.709Z,419.53
2019-05-15T11:57:37.156Z,419.50
2019-05-15T11:58:23.682Z,419.78
2019-05-15T11:59:22.669Z,419.52
2019-05-15T12:00:27.259Z,419.76
2019-05-15T12:01:23.628Z,419.41
2019-05-15T12:02:22.634Z,419.63
2019-05-15T12:03:24.835Z,419.76
2019-05-15T12:04:29.762Z,419.71
2019-05-15T12:05:23.576Z,419.44
2019-05-15T12:06:23.126Z,419.54
2019-05-15T12:07:22.562Z,419.64
2019-05-15T12:08:22.578Z,419.48
2019-05-15T12:09:22.537Z,419.86
2019-05-15T12:10:22.575Z,419.54
2019-05-15T12:11:33.301Z,419.69
2019-05-15T12:12:23.522Z,419.50
2019-05-15T12:13:22.534Z,420.15
2019-05-15T12:14:22.501Z,419.39
2019-05-15T12:15:22.460Z,419.49
2019-05-15T12:16:22.510Z,419.66
2019-05-15T12:17:22.445Z,419.74
2019-05-15T12:18:22.466Z,419.82
2019-05-15T12:19:22.424Z,419.45
2019-05-15T12:20:22.422Z,419.77
2019-05-15T12:21:22.399Z,419.49
2019-05-15T12:22:22.396Z,419.39
2019-05-15T12:23:22.404Z,419.49
2019-05-15T12:24:22.369Z,419.50
2019-05-15T12:25:22.363Z,419.25
2019-05-15T12:26:22.339Z,419.22
2019-05-15T12:27:22.342Z,419.45
2019-05-15T12:28:22.352Z,419.64